createdAt,value
2022-07-27T00:01:51.277Z,20.30
2022-07-27T00:04:19.524Z,20.30
2022-07-27T00:06:48.404Z,20.20
2022-07-27T00:09:18.394Z,20.20
2022-07-27T00:11:46.050Z,20.20
2022-07-27T00:14:12.934Z,20.20
2022-07-27T00:16:39.801Z,20.30
2022-07-27T00:19:08.589Z,20.30
2022-07-27T00:21:41.282Z,20.40
2022-07-27T00:24:13.160Z,20.40
2022-07-27T00:26:40.334Z,20.50
2022-07-27T00:29:07.462Z,20.50
2022-07-27T00:31:34.372Z,20.50
2022-07-27T00:34:01.202Z,20.50
2022-07-27T00:36:28.069Z,20.50
2022-07-27T00:38:54.972Z,20.50
2022-07-27T00:41:22.037Z,20.50
2022-07-27T00:44:00.371Z,20.40
2022-07-27T00:46:28.905Z,20.40
2022-07-27T00:48:55.906Z,20.40
2022-07-27T00:51:24.437Z,20.20
2022-07-27T00:53:53.278Z,20.30
2022-07-27T00:56:20.754Z,20.20
2022-07-27T00:58:49.825Z,20.20
2022-07-27T01:01:18.978Z,20.10
2022-07-27T01:03:46.640Z,20.20
2022-07-27T01:06:15.697Z,20.10
2022-07-27T01:08:42.749Z,20.10
2022-07-27T01:11:12.399Z,20.10
2022-07-27T01:13:39.487Z,20.00
2022-07-27T01:16:07.582Z,20.00
2022-07-27T01:18:38.767Z,20.00
2022-07-27T01:21:08.965Z,20.10
2022-07-27T01:23:36.008Z,20.00
2022-07-27T01:26:04.234Z,20.00
2022-07-27T01:28:31.114Z,20.00
2022-07-27T01:30:58.182Z,20.00
2022-07-27T01:33:27.908Z,20.00
2022-07-27T01:35:56.246Z,20.00
2022-07-27T01:38:23.501Z,20.00
2022-07-27T01:40:52.829Z,20.00
2022-07-27T01:43:19.967Z,20.00
2022-07-27T01:45:47.037Z,19.90
2022-07-27T01:48:14.014Z,19.90
2022-07-27T01:50:41.212Z,19.90
2022-07-27T01:53:14.498Z,19.90
2022-07-27T01:55:41.293Z,19.80
2022-07-27T01:58:09.299Z,19.80
2022-07-27T02:00:36.557Z,19.70
2022-07-27T02:03:04.962Z,19.80
2022-07-27T02:05:31.856Z,19.80
2022-07-27T02:07:58.894Z,19.80
2022-07-27T02:10:25.765Z,19.80
2022-07-27T02:12:53.118Z,19.80
2022-07-27T02:15:25.498Z,19.90
2022-07-27T02:17:54.192Z,19.80
2022-07-27T02:20:24.621Z,19.70
2022-07-27T02:22:52.175Z,19.70
2022-07-27T02:25:19.928Z,19.70
2022-07-27T02:27:47.589Z,19.60
2022-07-27T02:30:15.004Z,19.60
2022-07-27T02:32:45.021Z,19.60
2022-07-27T02:35:18.310Z,19.50
2022-07-27T02:37:57.191Z,19.40
2022-07-27T02:40:27.144Z,19.40
2022-07-27T02:42:54.131Z,19.40
2022-07-27T02:45:21.197Z,19.40
2022-07-27T02:47:48.242Z,19.40
2022-07-27T02:50:15.320Z,19.40
2022-07-27T02:52:42.772Z,19.40
2022-07-27T02:55:10.459Z,19.40
2022-07-27T02:57:39.713Z,19.40
2022-07-27T03:00:13.958Z,19.30
2022-07-27T03:02:41.229Z,19.30
2022-07-27T03:05:09.970Z,19.30
2022-07-27T03:07:37.028Z,19.30
2022-07-27T03:10:04.319Z,19.30
2022-07-27T03:12:31.268Z,19.10
2022-07-27T03:14:58.081Z,19.10
2022-07-27T03:17:24.884Z,19.00
2022-07-27T03:19:51.709Z,19.00
2022-07-27T03:22:18.533Z,18.90
2022-07-27T03:24:45.354Z,18.90
2022-07-27T03:27:13.122Z,18.90
2022-07-27T03:29:40.020Z,18.90
2022-07-27T03:32:06.892Z,18.80
2022-07-27T03:34:33.623Z,18.70
2022-07-27T03:37:00.321Z,18.70
2022-07-27T03:39:27.124Z,18.70
2022-07-27T03:41:54.108Z,18.70
2022-07-27T03:44:20.877Z,18.70
2022-07-27T03:46:47.577Z,18.70
2022-07-27T03:49:15.449Z,18.70
2022-07-27T03:51:42.573Z,18.70
2022-07-27T03:54:09.656Z,18.70
2022-07-27T03:56:36.396Z,18.80
2022-07-27T03:59:03.092Z,18.70
2022-07-27T04:01:30.067Z,18.80
2022-07-27T04:03:56.973Z,18.80
2022-07-27T04:06:23.830Z,18.80
2022-07-27T04:08:51.631Z,18.80
2022-07-27T04:11:22.953Z,18.70
2022-07-27T04:13:52.297Z,18.70
2022-07-27T04:16:19.179Z,18.70
2022-07-27T04:18:46.089Z,18.80
2022-07-27T04:21:13.375Z,18.80
2022-07-27T04:23:40.192Z,18.70
2022-07-27T04:26:06.978Z,18.70
2022-07-27T04:28:35.965Z,18.70
2022-07-27T04:31:02.685Z,18.70
2022-07-27T04:33:29.465Z,18.70
2022-07-27T04:35:56.301Z,18.70
2022-07-27T04:38:23.124Z,18.70
2022-07-27T04:40:51.852Z,18.70
2022-07-27T04:43:21.727Z,18.60
2022-07-27T04:45:48.565Z,18.60
2022-07-27T04:48:15.503Z,18.70
2022-07-27T04:50:43.811Z,18.80
2022-07-27T04:53:12.026Z,18.90
2022-07-27T04:55:42.887Z,18.90
2022-07-27T04:58:10.119Z,19.00
2022-07-27T05:00:36.951Z,19.00
2022-07-27T05:03:04.345Z,18.90
2022-07-27T05:05:31.607Z,18.90
2022-07-27T05:07:58.376Z,18.80
2022-07-27T05:10:25.577Z,18.90
2022-07-27T05:12:52.329Z,18.90
2022-07-27T05:15:19.764Z,18.90
2022-07-27T05:17:47.114Z,19.00
2022-07-27T05:20:14.827Z,19.00
2022-07-27T05:22:41.735Z,19.10
2022-07-27T05:25:08.990Z,19.20
2022-07-27T05:27:37.152Z,19.20
2022-07-27T05:30:22.171Z,19.20
2022-07-27T05:32:48.933Z,19.30
2022-07-27T05:35:15.725Z,19.30
2022-07-27T05:37:42.468Z,19.40
2022-07-27T05:40:10.361Z,19.40
2022-07-27T05:42:37.282Z,19.40
2022-07-27T05:45:04.970Z,19.40
2022-07-27T05:47:31.713Z,19.40
2022-07-27T05:49:59.480Z,19.50
2022-07-27T05:52:26.270Z,19.80
2022-07-27T05:54:53.200Z,19.90
2022-07-27T05:57:19.988Z,20.10
2022-07-27T05:59:46.759Z,19.90
2022-07-27T06:02:13.724Z,20.10
2022-07-27T06:04:40.544Z,20.10
2022-07-27T06:07:26.111Z,19.90
2022-07-27T06:09:52.866Z,19.80
2022-07-27T06:12:20.395Z,19.90
2022-07-27T06:14:50.955Z,19.90
2022-07-27T06:17:18.232Z,19.90
2022-07-27T06:19:45.419Z,19.90
2022-07-27T06:22:12.256Z,20.10
2022-07-27T06:24:38.991Z,20.30
2022-07-27T06:27:05.978Z,20.30
2022-07-27T06:29:34.758Z,20.40
2022-07-27T06:32:01.632Z,20.80
2022-07-27T06:34:28.978Z,21.00
2022-07-27T06:36:58.169Z,21.10
2022-07-27T06:39:24.957Z,21.10
2022-07-27T06:41:56.185Z,21.30
2022-07-27T06:44:24.826Z,21.40
2022-07-27T06:46:51.698Z,21.40
2022-07-27T06:49:18.770Z,21.50
2022-07-27T06:51:45.593Z,21.50
2022-07-27T06:54:12.386Z,21.50
2022-07-27T06:56:39.217Z,21.50
2022-07-27T06:59:05.955Z,21.60
2022-07-27T07:01:32.915Z,21.70
2022-07-27T07:04:00.335Z,21.80
2022-07-27T07:06:27.249Z,21.70
2022-07-27T07:08:54.011Z,21.60
2022-07-27T07:11:20.935Z,21.70
2022-07-27T07:13:47.773Z,21.70
2022-07-27T07:16:14.909Z,21.70
2022-07-27T07:18:41.700Z,21.60
2022-07-27T07:21:08.924Z,21.60
2022-07-27T07:23:35.727Z,21.80
2022-07-27T07:26:02.471Z,21.90
2022-07-27T07:28:29.288Z,22.10
2022-07-27T07:30:56.100Z,22.00
2022-07-27T07:33:22.941Z,22.10
2022-07-27T07:36:13.761Z,22.10
2022-07-27T07:38:36.632Z,22.10
2022-07-27T07:41:04.445Z,22.10
2022-07-27T07:43:31.237Z,22.20
2022-07-27T07:45:57.943Z,22.30
2022-07-27T07:48:24.676Z,22.40
2022-07-27T07:50:53.976Z,22.50
2022-07-27T07:53:22.642Z,22.60
2022-07-27T07:55:49.899Z,22.60
2022-07-27T07:58:16.676Z,22.70
2022-07-27T08:00:43.846Z,22.90
2022-07-27T08:03:10.742Z,23.00
2022-07-27T08:05:37.753Z,23.10
2022-07-27T08:08:04.805Z,23.30
2022-07-27T08:10:31.909Z,23.30
2022-07-27T08:12:58.918Z,23.40
2022-07-27T08:15:34.945Z,23.50
2022-07-27T08:18:04.864Z,23.60
2022-07-27T08:20:31.893Z,23.70
2022-07-27T08:22:58.642Z,23.90
2022-07-27T08:25:25.423Z,23.80
2022-07-27T08:27:52.209Z,23.90
2022-07-27T08:30:22.103Z,24.00
2022-07-27T08:32:53.635Z,24.10
2022-07-27T08:35:21.315Z,23.90
2022-07-27T08:37:48.207Z,23.70
2022-07-27T08:43:05.172Z,23.60
2022-07-27T08:45:33.083Z,23.70
2022-07-27T08:48:00.213Z,23.90
2022-07-27T08:50:29.142Z,23.60
2022-07-27T08:53:00.181Z,24.00
2022-07-27T08:55:28.515Z,24.40
2022-07-27T08:57:59.198Z,24.30
2022-07-27T09:00:29.968Z,23.90
2022-07-27T09:02:57.790Z,24.30
2022-07-27T09:05:25.283Z,25.10
2022-07-27T09:07:54.650Z,25.90
2022-07-27T09:10:40.750Z,25.90
2022-07-27T09:13:27.761Z,25.80
2022-07-27T09:16:19.269Z,26.10
2022-07-27T09:18:47.804Z,26.10
2022-07-27T09:21:24.652Z,26.20
2022-07-27T09:23:53.957Z,26.70
2022-07-27T09:26:33.764Z,26.50
2022-07-27T09:29:16.095Z,26.30
2022-07-27T09:31:49.095Z,26.50
2022-07-27T09:34:37.397Z,26.60
2022-07-27T09:37:06.336Z,26.60
2022-07-27T09:39:33.202Z,27.40
2022-07-27T09:42:02.349Z,27.90
2022-07-27T09:44:44.286Z,28.00
2022-07-27T09:47:29.058Z,27.40
2022-07-27T09:50:17.539Z,26.60
2022-07-27T09:52:46.191Z,26.40
2022-07-27T09:55:12.995Z,26.10
2022-07-27T09:57:59.134Z,26.10
2022-07-27T10:00:27.011Z,26.20
2022-07-27T10:02:55.289Z,26.20
2022-07-27T10:05:23.311Z,26.90
2022-07-27T10:07:52.379Z,28.10
2022-07-27T10:10:20.122Z,28.70
2022-07-27T10:12:54.191Z,29.00
2022-07-27T10:15:22.411Z,28.70
2022-07-27T10:18:01.588Z,29.00
2022-07-27T10:20:29.740Z,29.50
2022-07-27T10:23:00.106Z,30.50
2022-07-27T10:25:32.381Z,30.80
2022-07-27T10:28:09.119Z,30.30
2022-07-27T10:30:36.662Z,30.00
2022-07-27T10:33:35.645Z,29.30
2022-07-27T10:36:04.122Z,29.60
2022-07-27T10:38:48.613Z,29.70
2022-07-27T10:41:27.359Z,29.40
2022-07-27T10:44:18.823Z,30.20
2022-07-27T10:46:53.084Z,30.20
2022-07-27T10:49:25.620Z,29.70
2022-07-27T10:51:53.201Z,28.90
2022-07-27T10:54:27.068Z,28.90
2022-07-27T10:56:56.556Z,29.50
2022-07-27T11:00:07.414Z,29.10
2022-07-27T11:02:43.696Z,29.00
2022-07-27T11:10:49.284Z,32.10
2022-07-27T11:13:21.178Z,32.30
2022-07-27T11:16:04.647Z,32.20
2022-07-27T11:18:44.378Z,31.70
2022-07-27T11:21:26.669Z,30.70
2022-07-27T11:24:18.803Z,30.50
2022-07-27T11:26:51.881Z,30.60
2022-07-27T11:29:21.333Z,30.70
2022-07-27T11:31:56.340Z,31.10
2022-07-27T11:34:29.147Z,32.50
2022-07-27T11:36:58.409Z,33.20
2022-07-27T11:42:20.893Z,33.60
2022-07-27T11:44:49.059Z,33.50
2022-07-27T11:47:17.708Z,33.10
2022-07-27T11:49:44.614Z,33.30
2022-07-27T11:52:11.830Z,33.60
2022-07-27T11:54:41.389Z,34.40
2022-07-27T11:57:12.410Z,35.40
2022-07-27T11:59:44.457Z,35.90
2022-07-27T12:02:14.110Z,36.10
2022-07-27T12:04:43.975Z,35.50
2022-07-27T12:07:28.520Z,35.40
2022-07-27T12:09:57.970Z,34.10
2022-07-27T12:12:33.033Z,33.30
2022-07-27T12:15:16.493Z,32.80
2022-07-27T12:17:57.604Z,31.90
2022-07-27T12:20:33.642Z,31.10
2022-07-27T12:23:08.843Z,30.00
2022-07-27T12:25:36.238Z,29.40
2022-07-27T12:28:07.444Z,29.00
2022-07-27T12:30:37.273Z,28.80
2022-07-27T12:33:06.506Z,28.90
2022-07-27T12:35:48.100Z,29.10
2022-07-27T12:38:15.024Z,29.30
2022-07-27T12:40:48.251Z,29.40
2022-07-27T12:43:17.520Z,29.90
2022-07-27T12:45:44.973Z,31.50
2022-07-27T12:48:14.248Z,33.40
2022-07-27T12:50:42.852Z,35.20
2022-07-27T12:53:11.400Z,36.70
2022-07-27T12:55:38.272Z,37.70
2022-07-27T12:58:05.141Z,38.20
2022-07-27T13:00:34.051Z,38.50
2022-07-27T13:03:03.332Z,38.30
2022-07-27T13:05:30.730Z,38.60
2022-07-27T13:07:57.687Z,38.40
2022-07-27T13:10:24.663Z,38.90
2022-07-27T13:12:52.121Z,39.50
2022-07-27T13:15:20.015Z,39.70
2022-07-27T13:17:48.163Z,39.90
2022-07-27T13:20:18.327Z,40.00
2022-07-27T13:22:46.834Z,39.30
2022-07-27T13:25:15.984Z,39.30
2022-07-27T13:27:45.291Z,38.90
2022-07-27T13:30:13.684Z,37.60
2022-07-27T13:32:41.541Z,36.50
2022-07-27T13:35:10.050Z,36.30
2022-07-27T13:37:36.852Z,35.30
2022-07-27T13:40:04.821Z,35.10
2022-07-27T13:42:31.633Z,34.80
2022-07-27T13:45:08.674Z,34.20
2022-07-27T13:47:36.646Z,32.90
2022-07-27T13:50:04.193Z,32.00
2022-07-27T13:52:30.973Z,31.20
2022-07-27T13:54:57.753Z,30.50
2022-07-27T13:57:24.526Z,30.40
2022-07-27T13:59:51.286Z,30.80
2022-07-27T14:02:20.601Z,30.30
2022-07-27T14:04:52.023Z,30.50
2022-07-27T14:07:18.798Z,31.50
2022-07-27T14:10:03.997Z,32.90
2022-07-27T14:12:30.762Z,34.00
2022-07-27T14:14:57.656Z,35.30
2022-07-27T14:17:24.553Z,35.50
2022-07-27T14:19:51.372Z,36.60
2022-07-27T14:22:18.477Z,36.90
2022-07-27T14:24:45.204Z,37.40
2022-07-27T14:27:11.973Z,36.90
2022-07-27T14:29:38.732Z,37.60
2022-07-27T14:32:06.027Z,37.90
2022-07-27T14:34:32.950Z,38.90
2022-07-27T14:36:59.700Z,39.30
2022-07-27T14:39:26.469Z,39.60
2022-07-27T14:41:53.204Z,39.20
2022-07-27T14:44:19.982Z,38.30
2022-07-27T14:46:47.004Z,36.00
2022-07-27T14:49:17.068Z,34.80
2022-07-27T14:51:44.227Z,33.60
2022-07-27T14:54:11.024Z,32.40
2022-07-27T14:56:37.824Z,31.40
2022-07-27T14:59:04.767Z,31.60
2022-07-27T15:01:31.759Z,33.10
2022-07-27T15:03:58.761Z,33.90
2022-07-27T15:06:25.541Z,32.60
2022-07-27T15:08:52.410Z,31.60
2022-07-27T15:11:19.497Z,31.20
2022-07-27T15:13:46.284Z,31.10
2022-07-27T15:16:13.188Z,32.00
2022-07-27T15:18:39.992Z,33.70
2022-07-27T15:21:12.703Z,34.60
2022-07-27T15:23:40.127Z,35.40
2022-07-27T15:26:06.861Z,35.60
2022-07-27T15:28:33.796Z,34.40
2022-07-27T15:31:00.671Z,33.10
2022-07-27T15:33:27.657Z,32.00
2022-07-27T15:35:54.713Z,31.00
2022-07-27T15:38:21.555Z,30.20
2022-07-27T15:40:49.338Z,29.80
2022-07-27T15:43:25.653Z,30.40
2022-07-27T15:45:53.271Z,31.60
2022-07-27T15:48:22.040Z,33.10
2022-07-27T15:50:52.568Z,33.60
2022-07-27T15:53:21.314Z,33.40
2022-07-27T15:55:49.393Z,33.60
2022-07-27T15:58:19.400Z,34.30
2022-07-27T16:00:49.277Z,34.70
2022-07-27T16:03:16.744Z,35.10
2022-07-27T16:05:50.150Z,35.20
2022-07-27T16:08:18.275Z,35.50
2022-07-27T16:10:46.969Z,35.20
2022-07-27T16:13:14.599Z,35.20
2022-07-27T16:16:01.494Z,34.80
2022-07-27T16:18:28.567Z,34.60
2022-07-27T16:20:55.831Z,34.80
2022-07-27T16:23:22.831Z,34.30
2022-07-27T16:26:07.562Z,32.60
2022-07-27T16:28:39.054Z,31.80
2022-07-27T16:31:07.982Z,30.90
2022-07-27T16:33:35.143Z,30.40
2022-07-27T16:36:02.190Z,29.80
2022-07-27T16:38:29.160Z,29.60
2022-07-27T16:40:56.047Z,29.50
2022-07-27T16:43:22.986Z,29.40
2022-07-27T16:46:02.740Z,29.10
2022-07-27T16:48:38.584Z,29.30
2022-07-27T16:51:10.982Z,29.40
2022-07-27T16:53:43.527Z,29.30
2022-07-27T16:56:12.221Z,28.90
2022-07-27T16:58:43.418Z,28.80
2022-07-27T17:01:21.915Z,28.50
2022-07-27T17:03:56.898Z,28.20
2022-07-27T17:06:24.943Z,28.00
2022-07-27T17:08:52.625Z,27.80
2022-07-27T17:11:21.492Z,27.80
2022-07-27T17:13:49.953Z,27.80
2022-07-27T17:16:20.979Z,27.90
2022-07-27T17:18:49.878Z,27.80
2022-07-27T17:21:17.166Z,27.70
2022-07-27T17:23:44.995Z,27.50
2022-07-27T17:26:12.852Z,27.40
2022-07-27T17:28:40.792Z,27.00
2022-07-27T17:31:12.288Z,26.80
2022-07-27T17:33:40.482Z,26.70
2022-07-27T17:36:28.469Z,26.50
2022-07-27T17:38:55.640Z,26.40
2022-07-27T17:41:24.846Z,26.10
2022-07-27T17:43:53.766Z,26.20
2022-07-27T17:46:21.861Z,26.20
2022-07-27T17:48:48.848Z,26.20
2022-07-27T17:51:16.152Z,25.90
2022-07-27T17:53:43.778Z,25.70
2022-07-27T17:56:11.189Z,25.60
2022-07-27T17:58:38.275Z,25.50
2022-07-27T18:01:06.477Z,25.50
2022-07-27T18:03:33.818Z,25.20
2022-07-27T18:06:01.585Z,25.00
2022-07-27T18:08:28.809Z,24.90
2022-07-27T18:10:55.598Z,24.90
2022-07-27T18:13:22.739Z,24.80
2022-07-27T18:15:54.469Z,24.70
2022-07-27T18:18:24.916Z,24.60
2022-07-27T18:20:54.522Z,24.50
2022-07-27T18:23:23.353Z,24.40
2022-07-27T18:25:50.673Z,24.40
2022-07-27T18:28:18.834Z,24.20
2022-07-27T18:30:46.673Z,24.20
2022-07-27T18:33:14.552Z,24.00
2022-07-27T18:35:45.522Z,23.90
2022-07-27T18:38:12.961Z,23.70
2022-07-27T18:40:42.690Z,23.50
2022-07-27T18:43:10.771Z,23.40
2022-07-27T18:45:38.955Z,23.20
2022-07-27T18:48:08.485Z,23.10
2022-07-27T18:50:40.216Z,23.00
2022-07-27T18:53:08.169Z,22.90
2022-07-27T18:55:35.361Z,22.80
2022-07-27T18:58:02.245Z,22.70
2022-07-27T19:00:31.358Z,22.70
2022-07-27T19:02:59.004Z,22.60
2022-07-27T19:05:32.587Z,22.50
2022-07-27T19:08:13.207Z,22.50
2022-07-27T19:10:42.055Z,22.40
2022-07-27T19:13:09.322Z,22.30
2022-07-27T19:15:36.404Z,22.20
2022-07-27T19:18:04.525Z,22.20
2022-07-27T19:20:31.407Z,22.10
2022-07-27T19:22:59.830Z,22.10
2022-07-27T19:25:26.878Z,22.00
2022-07-27T19:27:53.642Z,22.00
2022-07-27T19:30:21.016Z,21.90
2022-07-27T19:32:48.139Z,21.80
2022-07-27T19:35:17.420Z,21.70
2022-07-27T19:37:44.251Z,21.70
2022-07-27T19:40:41.533Z,21.60
2022-07-27T19:43:04.479Z,21.50
2022-07-27T19:45:32.217Z,21.40
2022-07-27T19:48:01.596Z,21.30
2022-07-27T19:50:28.706Z,21.30
2022-07-27T19:52:55.892Z,21.20
2022-07-27T19:55:22.803Z,21.20
2022-07-27T19:57:50.020Z,21.20
2022-07-27T20:00:18.882Z,21.10
2022-07-27T20:02:47.854Z,21.00
2022-07-27T20:05:15.357Z,21.00
2022-07-27T20:07:43.546Z,20.90
2022-07-27T20:10:10.998Z,20.90
2022-07-27T20:12:38.236Z,20.80
2022-07-27T20:15:05.821Z,20.80
2022-07-27T20:17:36.886Z,20.80
2022-07-27T20:20:05.818Z,20.80
2022-07-27T20:22:32.754Z,20.60
2022-07-27T20:24:59.605Z,20.50
2022-07-27T20:27:26.520Z,20.40
2022-07-27T20:29:53.394Z,20.30
2022-07-27T20:32:20.334Z,20.20
2022-07-27T20:34:48.426Z,20.10
2022-07-27T20:37:18.982Z,20.00
2022-07-27T20:39:46.221Z,20.00
2022-07-27T20:42:14.624Z,19.90
2022-07-27T20:44:41.416Z,19.80
2022-07-27T20:47:08.904Z,19.80
2022-07-27T20:49:35.924Z,19.70
2022-07-27T20:52:03.008Z,19.70
2022-07-27T20:54:30.426Z,19.80
2022-07-27T20:56:57.389Z,19.80
2022-07-27T20:59:24.587Z,19.70
2022-07-27T21:01:51.722Z,19.70
2022-07-27T21:04:19.183Z,19.80
2022-07-27T21:06:46.449Z,19.80
2022-07-27T21:09:13.696Z,19.70
2022-07-27T21:11:40.858Z,19.70
2022-07-27T21:14:09.548Z,19.60
2022-07-27T21:16:37.255Z,19.60
2022-07-27T21:19:04.179Z,19.60
2022-07-27T21:21:31.323Z,19.60
2022-07-27T21:24:17.557Z,19.50
2022-07-27T21:26:48.754Z,19.40
2022-07-27T21:29:16.386Z,19.40
2022-07-27T21:31:46.921Z,19.30
2022-07-27T21:34:18.957Z,19.30
2022-07-27T21:36:46.615Z,19.30
2022-07-27T21:39:13.390Z,19.30
2022-07-27T21:41:40.175Z,19.20
2022-07-27T21:44:07.256Z,19.20
2022-07-27T21:46:34.139Z,19.20
2022-07-27T21:49:00.939Z,19.20
2022-07-27T21:51:28.042Z,19.10
2022-07-27T21:53:55.010Z,19.10
2022-07-27T21:56:21.768Z,19.10
2022-07-27T21:58:48.854Z,19.10
2022-07-27T22:01:16.521Z,19.10
2022-07-27T22:03:44.079Z,19.00
2022-07-27T22:06:11.617Z,19.00
2022-07-27T22:08:38.875Z,19.00
2022-07-27T22:11:05.827Z,19.00
2022-07-27T22:13:33.353Z,18.90
2022-07-27T22:16:00.933Z,18.90
2022-07-27T22:18:28.756Z,18.80
2022-07-27T22:20:55.947Z,18.80
2022-07-27T22:23:23.099Z,18.80
2022-07-27T22:25:50.137Z,18.80
2022-07-27T22:28:16.975Z,18.70
2022-07-27T22:30:43.745Z,18.70
2022-07-27T22:33:30.514Z,18.70
2022-07-27T22:35:57.741Z,18.60
2022-07-27T22:38:24.606Z,18.60
2022-07-27T22:40:55.552Z,18.50
2022-07-27T22:43:22.508Z,18.50
2022-07-27T22:45:50.452Z,18.40
2022-07-27T22:48:17.503Z,18.40
2022-07-27T22:50:45.491Z,18.30
2022-07-27T22:53:14.152Z,18.30
2022-07-27T22:55:41.452Z,18.20
2022-07-27T22:58:08.173Z,18.20
2022-07-27T23:00:34.849Z,18.10
2022-07-27T23:03:01.698Z,18.10
2022-07-27T23:05:28.626Z,18.00
2022-07-27T23:07:55.520Z,18.00
2022-07-27T23:10:40.780Z,17.90
2022-07-27T23:13:07.552Z,17.90
2022-07-27T23:15:34.232Z,17.80
2022-07-27T23:18:01.077Z,17.80
2022-07-27T23:20:27.738Z,17.90
2022-07-27T23:22:55.273Z,17.80
2022-07-27T23:25:22.164Z,17.80
2022-07-27T23:27:49.386Z,17.70
2022-07-27T23:30:16.175Z,17.70
2022-07-27T23:32:42.804Z,17.60
2022-07-27T23:35:10.039Z,17.60
2022-07-27T23:37:37.121Z,17.50
2022-07-27T23:40:05.309Z,17.40
2022-07-27T23:42:32.102Z,17.30
2022-07-27T23:44:58.830Z,17.20
2022-07-27T23:47:25.557Z,17.20
2022-07-27T23:49:52.305Z,17.20
2022-07-27T23:52:19.092Z,17.10
2022-07-27T23:54:45.807Z,17.00
2022-07-27T23:57:12.569Z,17.00
2022-07-27T23:59:39.404Z,17.00
